sensor_id;sensor_type;location;lat;lon;timestamp;P1;durP1;ratioP1;P2;durP2;ratioP2
55931;SDS011;41837;55.700;37.984;2022-07-22T00:01:43;5.70;;;2.25;;
55931;SDS011;41837;55.700;37.984;2022-07-22T00:04:09;3.85;;;1.85;;
55931;SDS011;41837;55.700;37.984;2022-07-22T00:06:35;3.95;;;2.15;;
55931;SDS011;41837;55.700;37.984;2022-07-22T00:09:00;4.72;;;1.92;;
55931;SDS011;41837;55.700;37.984;2022-07-22T00:11:27;3.50;;;1.85;;
55931;SDS011;41837;55.700;37.984;2022-07-22T00:13:53;2.80;;;2.10;;
55931;SDS011;41837;55.700;37.984;2022-07-22T00:16:19;3.38;;;1.90;;
55931;SDS011;41837;55.700;37.984;2022-07-22T00:18:45;3.45;;;1.85;;
55931;SDS011;41837;55.700;37.984;2022-07-22T00:21:11;2.63;;;1.80;;
55931;SDS011;41837;55.700;37.984;2022-07-22T00:23:37;3.13;;;1.98;;
55931;SDS011;41837;55.700;37.984;2022-07-22T00:26:04;5.50;;;1.65;;
55931;SDS011;41837;55.700;37.984;2022-07-22T00:28:29;7.97;;;1.90;;
55931;SDS011;41837;55.700;37.984;2022-07-22T00:30:56;2.67;;;1.63;;
55931;SDS011;41837;55.700;37.984;2022-07-22T00:33:22;2.42;;;1.90;;
55931;SDS011;41837;55.700;37.984;2022-07-22T00:35:49;2.85;;;1.90;;
55931;SDS011;41837;55.700;37.984;2022-07-22T00:38:15;2.65;;;1.70;;
55931;SDS011;41837;55.700;37.984;2022-07-22T00:40:42;3.80;;;1.60;;
55931;SDS011;41837;55.700;37.984;2022-07-22T00:43:08;3.67;;;1.80;;
55931;SDS011;41837;55.700;37.984;2022-07-22T00:45:35;5.65;;;2.03;;
55931;SDS011;41837;55.700;37.984;2022-07-22T00:48:01;4.50;;;1.70;;
55931;SDS011;41837;55.700;37.984;2022-07-22T00:50:28;4.47;;;1.77;;
55931;SDS011;41837;55.700;37.984;2022-07-22T00:52:54;3.75;;;1.83;;
55931;SDS011;41837;55.700;37.984;2022-07-22T00:55:20;2.45;;;1.70;;
55931;SDS011;41837;55.700;37.984;2022-07-22T00:57:46;4.82;;;2.05;;
55931;SDS011;41837;55.700;37.984;2022-07-22T01:00:14;3.20;;;1.60;;
55931;SDS011;41837;55.700;37.984;2022-07-22T01:02:40;5.05;;;2.08;;
55931;SDS011;41837;55.700;37.984;2022-07-22T01:05:06;6.20;;;1.70;;
55931;SDS011;41837;55.700;37.984;2022-07-22T01:07:32;6.43;;;1.80;;
55931;SDS011;41837;55.700;37.984;2022-07-22T01:09:58;4.03;;;1.85;;
55931;SDS011;41837;55.700;37.984;2022-07-22T01:12:24;4.30;;;1.90;;
55931;SDS011;41837;55.700;37.984;2022-07-22T01:14:51;3.67;;;1.88;;
55931;SDS011;41837;55.700;37.984;2022-07-22T01:17:18;2.78;;;1.77;;
55931;SDS011;41837;55.700;37.984;2022-07-22T01:19:43;3.47;;;2.40;;
55931;SDS011;41837;55.700;37.984;2022-07-22T01:22:10;4.18;;;2.13;;
55931;SDS011;41837;55.700;37.984;2022-07-22T01:24:36;4.75;;;1.92;;
55931;SDS011;41837;55.700;37.984;2022-07-22T01:27:02;3.78;;;2.20;;
55931;SDS011;41837;55.700;37.984;2022-07-22T01:29:29;4.60;;;1.83;;
55931;SDS011;41837;55.700;37.984;2022-07-22T01:31:55;6.13;;;1.83;;
55931;SDS011;41837;55.700;37.984;2022-07-22T01:34:22;3.65;;;1.80;;
55931;SDS011;41837;55.700;37.984;2022-07-22T01:36:48;5.65;;;2.00;;
55931;SDS011;41837;55.700;37.984;2022-07-22T01:39:14;3.38;;;2.10;;
55931;SDS011;41837;55.700;37.984;2022-07-22T01:41:41;4.32;;;1.85;;
55931;SDS011;41837;55.700;37.984;2022-07-22T01:44:11;3.05;;;1.85;;
55931;SDS011;41837;55.700;37.984;2022-07-22T01:46:37;5.50;;;2.20;;
55931;SDS011;41837;55.700;37.984;2022-07-22T01:49:04;3.70;;;1.88;;
55931;SDS011;41837;55.700;37.984;2022-07-22T01:51:35;5.82;;;1.92;;
55931;SDS011;41837;55.700;37.984;2022-07-22T01:54:02;5.97;;;1.92;;
55931;SDS011;41837;55.700;37.984;2022-07-22T01:56:28;8.30;;;2.10;;
55931;SDS011;41837;55.700;37.984;2022-07-22T01:58:54;5.70;;;2.28;;
55931;SDS011;41837;55.700;37.984;2022-07-22T02:01:25;4.45;;;2.38;;
55931;SDS011;41837;55.700;37.984;2022-07-22T02:03:52;5.15;;;2.55;;
55931;SDS011;41837;55.700;37.984;2022-07-22T02:06:18;6.25;;;2.85;;
55931;SDS011;41837;55.700;37.984;2022-07-22T02:08:45;5.68;;;2.17;;
55931;SDS011;41837;55.700;37.984;2022-07-22T02:11:18;5.18;;;2.10;;
55931;SDS011;41837;55.700;37.984;2022-07-22T02:13:52;5.03;;;2.60;;
55931;SDS011;41837;55.700;37.984;2022-07-22T02:16:19;3.08;;;2.00;;
55931;SDS011;41837;55.700;37.984;2022-07-22T02:18:45;5.20;;;2.20;;
55931;SDS011;41837;55.700;37.984;2022-07-22T02:21:12;2.60;;;2.05;;
55931;SDS011;41837;55.700;37.984;2022-07-22T02:23:38;3.60;;;2.20;;
55931;SDS011;41837;55.700;37.984;2022-07-22T02:26:04;5.15;;;2.60;;
55931;SDS011;41837;55.700;37.984;2022-07-22T02:28:30;5.10;;;2.25;;
55931;SDS011;41837;55.700;37.984;2022-07-22T02:30:56;5.70;;;2.45;;
55931;SDS011;41837;55.700;37.984;2022-07-22T02:33:22;2.75;;;1.80;;
55931;SDS011;41837;55.700;37.984;2022-07-22T02:35:49;2.67;;;1.75;;
55931;SDS011;41837;55.700;37.984;2022-07-22T02:38:15;3.72;;;1.75;;
55931;SDS011;41837;55.700;37.984;2022-07-22T02:40:41;4.50;;;1.90;;
55931;SDS011;41837;55.700;37.984;2022-07-22T02:43:10;3.78;;;1.98;;
55931;SDS011;41837;55.700;37.984;2022-07-22T02:45:37;6.10;;;1.90;;
55931;SDS011;41837;55.700;37.984;2022-07-22T02:48:03;4.07;;;1.77;;
55931;SDS011;41837;55.700;37.984;2022-07-22T02:50:32;7.32;;;1.70;;
55931;SDS011;41837;55.700;37.984;2022-07-22T02:53:03;3.63;;;1.98;;
55931;SDS011;41837;55.700;37.984;2022-07-22T02:55:34;8.68;;;1.90;;
55931;SDS011;41837;55.700;37.984;2022-07-22T02:58:06;4.88;;;1.60;;
55931;SDS011;41837;55.700;37.984;2022-07-22T03:00:33;4.28;;;1.65;;
55931;SDS011;41837;55.700;37.984;2022-07-22T03:02:59;3.47;;;1.23;;
55931;SDS011;41837;55.700;37.984;2022-07-22T03:05:25;3.80;;;1.85;;
55931;SDS011;41837;55.700;37.984;2022-07-22T03:08:00;3.75;;;1.63;;
55931;SDS011;41837;55.700;37.984;2022-07-22T03:10:26;3.45;;;1.65;;
55931;SDS011;41837;55.700;37.984;2022-07-22T03:12:53;6.45;;;1.40;;
55931;SDS011;41837;55.700;37.984;2022-07-22T03:15:19;2.58;;;1.60;;
55931;SDS011;41837;55.700;37.984;2022-07-22T03:17:45;2.85;;;1.55;;
55931;SDS011;41837;55.700;37.984;2022-07-22T03:20:11;4.32;;;1.60;;
55931;SDS011;41837;55.700;37.984;2022-07-22T03:22:37;3.38;;;1.60;;
55931;SDS011;41837;55.700;37.984;2022-07-22T03:25:04;5.25;;;1.88;;
55931;SDS011;41837;55.700;37.984;2022-07-22T03:27:31;4.03;;;1.50;;
55931;SDS011;41837;55.700;37.984;2022-07-22T03:29:58;3.30;;;1.38;;
55931;SDS011;41837;55.700;37.984;2022-07-22T03:32:24;6.88;;;1.55;;
55931;SDS011;41837;55.700;37.984;2022-07-22T03:34:51;4.60;;;1.48;;
55931;SDS011;41837;55.700;37.984;2022-07-22T03:37:18;3.38;;;1.40;;
55931;SDS011;41837;55.700;37.984;2022-07-22T03:39:44;3.10;;;1.50;;
55931;SDS011;41837;55.700;37.984;2022-07-22T03:42:10;3.92;;;1.40;;
55931;SDS011;41837;55.700;37.984;2022-07-22T03:44:46;4.20;;;1.30;;
55931;SDS011;41837;55.700;37.984;2022-07-22T03:47:17;8.80;;;1.80;;
55931;SDS011;41837;55.700;37.984;2022-07-22T03:49:43;4.53;;;1.38;;
55931;SDS011;41837;55.700;37.984;2022-07-22T03:52:11;6.57;;;1.30;;
55931;SDS011;41837;55.700;37.984;2022-07-22T03:54:39;3.88;;;1.65;;
55931;SDS011;41837;55.700;37.984;2022-07-22T03:57:04;3.28;;;1.58;;
55931;SDS011;41837;55.700;37.984;2022-07-22T03:59:31;1.42;;;1.20;;
55931;SDS011;41837;55.700;37.984;2022-07-22T04:01:57;5.78;;;1.48;;
55931;SDS011;41837;55.700;37.984;2022-07-22T04:04:23;1.63;;;1.30;;
55931;SDS011;41837;55.700;37.984;2022-07-22T04:06:49;2.28;;;1.15;;
55931;SDS011;41837;55.700;37.984;2022-07-22T04:09:20;3.30;;;1.40;;
55931;SDS011;41837;55.700;37.984;2022-07-22T04:11:46;4.30;;;1.20;;
55931;SDS011;41837;55.700;37.984;2022-07-22T04:14:13;2.35;;;1.40;;
55931;SDS011;41837;55.700;37.984;2022-07-22T04:16:39;3.00;;;1.55;;
55931;SDS011;41837;55.700;37.984;2022-07-22T04:19:08;3.03;;;1.50;;
55931;SDS011;41837;55.700;37.984;2022-07-22T04:21:55;3.75;;;1.45;;
55931;SDS011;41837;55.700;37.984;2022-07-22T04:24:25;3.50;;;1.38;;
55931;SDS011;41837;55.700;37.984;2022-07-22T04:26:51;4.82;;;1.20;;
55931;SDS011;41837;55.700;37.984;2022-07-22T04:29:18;2.97;;;1.30;;
55931;SDS011;41837;55.700;37.984;2022-07-22T04:31:43;8.40;;;1.60;;
55931;SDS011;41837;55.700;37.984;2022-07-22T04:34:13;1.88;;;1.10;;
55931;SDS011;41837;55.700;37.984;2022-07-22T04:36:40;3.85;;;1.00;;
55931;SDS011;41837;55.700;37.984;2022-07-22T04:39:07;5.60;;;1.27;;
55931;SDS011;41837;55.700;37.984;2022-07-22T04:41:35;5.18;;;1.00;;
55931;SDS011;41837;55.700;37.984;2022-07-22T04:44:02;2.78;;;1.20;;
55931;SDS011;41837;55.700;37.984;2022-07-22T04:46:31;3.95;;;1.27;;
55931;SDS011;41837;55.700;37.984;2022-07-22T04:48:58;1.50;;;1.33;;
55931;SDS011;41837;55.700;37.984;2022-07-22T04:51:25;3.08;;;1.38;;
55931;SDS011;41837;55.700;37.984;2022-07-22T04:53:59;7.13;;;1.40;;
55931;SDS011;41837;55.700;37.984;2022-07-22T04:56:25;1.20;;;1.10;;
55931;SDS011;41837;55.700;37.984;2022-07-22T04:58:50;7.53;;;1.98;;
55931;SDS011;41837;55.700;37.984;2022-07-22T05:01:17;3.05;;;1.27;;
55931;SDS011;41837;55.700;37.984;2022-07-22T05:03:47;2.20;;;1.33;;
55931;SDS011;41837;55.700;37.984;2022-07-22T05:06:13;3.00;;;1.20;;
55931;SDS011;41837;55.700;37.984;2022-07-22T05:08:42;3.05;;;1.25;;
55931;SDS011;41837;55.700;37.984;2022-07-22T05:11:10;3.78;;;1.50;;
55931;SDS011;41837;55.700;37.984;2022-07-22T05:13:36;2.13;;;1.15;;
55931;SDS011;41837;55.700;37.984;2022-07-22T05:16:03;1.60;;;1.10;;
55931;SDS011;41837;55.700;37.984;2022-07-22T05:18:31;2.40;;;1.10;;
55931;SDS011;41837;55.700;37.984;2022-07-22T05:20:57;3.00;;;1.10;;
55931;SDS011;41837;55.700;37.984;2022-07-22T05:23:23;4.18;;;1.40;;
55931;SDS011;41837;55.700;37.984;2022-07-22T05:25:49;2.97;;;1.92;;
55931;SDS011;41837;55.700;37.984;2022-07-22T05:28:16;3.22;;;1.60;;
55931;SDS011;41837;55.700;37.984;2022-07-22T05:30:44;5.60;;;3.70;;
55931;SDS011;41837;55.700;37.984;2022-07-22T05:33:09;4.03;;;2.20;;
55931;SDS011;41837;55.700;37.984;2022-07-22T05:35:54;5.07;;;1.27;;
55931;SDS011;41837;55.700;37.984;2022-07-22T05:38:22;1.65;;;1.10;;
55931;SDS011;41837;55.700;37.984;2022-07-22T05:40:48;3.58;;;1.48;;
55931;SDS011;41837;55.700;37.984;2022-07-22T05:43:14;4.70;;;1.45;;
55931;SDS011;41837;55.700;37.984;2022-07-22T05:45:40;4.07;;;1.20;;
55931;SDS011;41837;55.700;37.984;2022-07-22T05:48:07;4.18;;;1.30;;
55931;SDS011;41837;55.700;37.984;2022-07-22T05:50:33;1.70;;;1.20;;
55931;SDS011;41837;55.700;37.984;2022-07-22T05:53:01;4.57;;;1.50;;
55931;SDS011;41837;55.700;37.984;2022-07-22T05:55:27;4.65;;;1.27;;
55931;SDS011;41837;55.700;37.984;2022-07-22T05:57:53;5.65;;;1.33;;
55931;SDS011;41837;55.700;37.984;2022-07-22T06:00:19;2.92;;;1.10;;
55931;SDS011;41837;55.700;37.984;2022-07-22T06:02:46;1.52;;;1.00;;
55931;SDS011;41837;55.700;37.984;2022-07-22T06:05:17;3.05;;;1.10;;
55931;SDS011;41837;55.700;37.984;2022-07-22T06:07:44;4.80;;;1.13;;
55931;SDS011;41837;55.700;37.984;2022-07-22T06:10:14;3.08;;;1.30;;
55931;SDS011;41837;55.700;37.984;2022-07-22T06:12:41;2.80;;;1.20;;
55931;SDS011;41837;55.700;37.984;2022-07-22T06:15:07;2.17;;;1.13;;
55931;SDS011;41837;55.700;37.984;2022-07-22T06:17:33;2.78;;;1.10;;
55931;SDS011;41837;55.700;37.984;2022-07-22T06:20:01;3.33;;;1.20;;
55931;SDS011;41837;55.700;37.984;2022-07-22T06:22:28;4.30;;;1.42;;
55931;SDS011;41837;55.700;37.984;2022-07-22T06:24:54;4.95;;;1.40;;
55931;SDS011;41837;55.700;37.984;2022-07-22T06:27:20;4.40;;;1.20;;
55931;SDS011;41837;55.700;37.984;2022-07-22T06:29:48;1.73;;;1.20;;
55931;SDS011;41837;55.700;37.984;2022-07-22T06:32:14;3.42;;;1.20;;
55931;SDS011;41837;55.700;37.984;2022-07-22T06:34:40;2.95;;;1.00;;
55931;SDS011;41837;55.700;37.984;2022-07-22T06:37:06;4.72;;;1.65;;
55931;SDS011;41837;55.700;37.984;2022-07-22T06:39:37;3.83;;;1.63;;
55931;SDS011;41837;55.700;37.984;2022-07-22T06:42:03;1.83;;;1.13;;
55931;SDS011;41837;55.700;37.984;2022-07-22T06:44:58;2.58;;;1.17;;
55931;SDS011;41837;55.700;37.984;2022-07-22T06:47:43;4.68;;;1.33;;
55931;SDS011;41837;55.700;37.984;2022-07-22T06:50:11;5.32;;;1.13;;
55931;SDS011;41837;55.700;37.984;2022-07-22T06:52:38;1.42;;;1.02;;
55931;SDS011;41837;55.700;37.984;2022-07-22T06:55:05;2.38;;;1.10;;
55931;SDS011;41837;55.700;37.984;2022-07-22T06:57:34;8.05;;;1.50;;
55931;SDS011;41837;55.700;37.984;2022-07-22T07:00:02;4.60;;;1.27;;
55931;SDS011;41837;55.700;37.984;2022-07-22T07:02:29;6.53;;;1.25;;
55931;SDS011;41837;55.700;37.984;2022-07-22T07:04:55;2.40;;;1.30;;
55931;SDS011;41837;55.700;37.984;2022-07-22T07:07:21;3.30;;;1.30;;
55931;SDS011;41837;55.700;37.984;2022-07-22T07:09:54;7.53;;;1.35;;
55931;SDS011;41837;55.700;37.984;2022-07-22T07:12:38;2.15;;;1.40;;
55931;SDS011;41837;55.700;37.984;2022-07-22T07:15:19;5.15;;;0.98;;
55931;SDS011;41837;55.700;37.984;2022-07-22T07:17:46;6.65;;;1.42;;
55931;SDS011;41837;55.700;37.984;2022-07-22T07:20:14;2.67;;;1.30;;
55931;SDS011;41837;55.700;37.984;2022-07-22T07:22:40;2.78;;;1.70;;
55931;SDS011;41837;55.700;37.984;2022-07-22T07:25:07;2.55;;;0.90;;
55931;SDS011;41837;55.700;37.984;2022-07-22T07:27:34;1.13;;;1.02;;
55931;SDS011;41837;55.700;37.984;2022-07-22T07:30:01;1.80;;;1.20;;
55931;SDS011;41837;55.700;37.984;2022-07-22T07:32:32;1.38;;;1.10;;
55931;SDS011;41837;55.700;37.984;2022-07-22T07:34:58;3.67;;;1.52;;
55931;SDS011;41837;55.700;37.984;2022-07-22T07:37:23;7.43;;;1.27;;
55931;SDS011;41837;55.700;37.984;2022-07-22T07:39:50;2.63;;;1.60;;
55931;SDS011;41837;55.700;37.984;2022-07-22T07:42:16;3.40;;;0.93;;
55931;SDS011;41837;55.700;37.984;2022-07-22T07:44:42;1.55;;;0.98;;
55931;SDS011;41837;55.700;37.984;2022-07-22T07:47:08;2.80;;;1.10;;
55931;SDS011;41837;55.700;37.984;2022-07-22T07:49:34;3.55;;;1.10;;
55931;SDS011;41837;55.700;37.984;2022-07-22T07:52:00;2.75;;;0.98;;
55931;SDS011;41837;55.700;37.984;2022-07-22T07:54:26;4.97;;;1.60;;
55931;SDS011;41837;55.700;37.984;2022-07-22T07:56:53;4.45;;;1.45;;
55931;SDS011;41837;55.700;37.984;2022-07-22T07:59:19;2.15;;;1.00;;
55931;SDS011;41837;55.700;37.984;2022-07-22T08:01:46;4.90;;;1.00;;
55931;SDS011;41837;55.700;37.984;2022-07-22T08:04:12;4.05;;;1.17;;
55931;SDS011;41837;55.700;37.984;2022-07-22T08:06:38;2.97;;;1.20;;
55931;SDS011;41837;55.700;37.984;2022-07-22T08:09:05;2.25;;;1.00;;
55931;SDS011;41837;55.700;37.984;2022-07-22T08:11:34;1.42;;;0.82;;
55931;SDS011;41837;55.700;37.984;2022-07-22T08:14:22;1.83;;;1.10;;
55931;SDS011;41837;55.700;37.984;2022-07-22T08:17:01;2.20;;;1.13;;
55931;SDS011;41837;55.700;37.984;2022-07-22T08:19:28;3.40;;;1.10;;
55931;SDS011;41837;55.700;37.984;2022-07-22T08:21:54;1.75;;;0.85;;
55931;SDS011;41837;55.700;37.984;2022-07-22T08:24:25;3.95;;;1.10;;
55931;SDS011;41837;55.700;37.984;2022-07-22T08:26:52;4.38;;;1.45;;
55931;SDS011;41837;55.700;37.984;2022-07-22T08:29:17;3.60;;;1.10;;
55931;SDS011;41837;55.700;37.984;2022-07-22T08:31:44;3.95;;;1.10;;
55931;SDS011;41837;55.700;37.984;2022-07-22T08:34:12;3.63;;;0.88;;
55931;SDS011;41837;55.700;37.984;2022-07-22T08:36:38;2.08;;;0.90;;
55931;SDS011;41837;55.700;37.984;2022-07-22T08:39:04;1.83;;;1.30;;
55931;SDS011;41837;55.700;37.984;2022-07-22T08:41:34;2.13;;;1.00;;
55931;SDS011;41837;55.700;37.984;2022-07-22T08:44:00;3.67;;;1.65;;
55931;SDS011;41837;55.700;37.984;2022-07-22T08:46:27;4.03;;;1.80;;
55931;SDS011;41837;55.700;37.984;2022-07-22T08:49:22;3.40;;;1.35;;
55931;SDS011;41837;55.700;37.984;2022-07-22T08:51:54;4.75;;;1.90;;
55931;SDS011;41837;55.700;37.984;2022-07-22T08:54:23;3.15;;;1.40;;
55931;SDS011;41837;55.700;37.984;2022-07-22T08:56:49;4.80;;;1.35;;
55931;SDS011;41837;55.700;37.984;2022-07-22T08:59:17;6.10;;;1.55;;
55931;SDS011;41837;55.700;37.984;2022-07-22T09:04:29;2.53;;;0.80;;
55931;SDS011;41837;55.700;37.984;2022-07-22T09:06:57;5.65;;;1.10;;
55931;SDS011;41837;55.700;37.984;2022-07-22T09:09:32;2.35;;;0.80;;
55931;SDS011;41837;55.700;37.984;2022-07-22T09:12:31;5.90;;;1.00;;
55931;SDS011;41837;55.700;37.984;2022-07-22T09:15:27;2.28;;;1.08;;
55931;SDS011;41837;55.700;37.984;2022-07-22T09:18:16;3.17;;;0.70;;
55931;SDS011;41837;55.700;37.984;2022-07-22T09:21:02;3.28;;;0.95;;
55931;SDS011;41837;55.700;37.984;2022-07-22T09:23:58;1.85;;;0.80;;
55931;SDS011;41837;55.700;37.984;2022-07-22T09:26:31;2.63;;;0.82;;
55931;SDS011;41837;55.700;37.984;2022-07-22T09:29:24;2.38;;;0.77;;
55931;SDS011;41837;55.700;37.984;2022-07-22T09:32:12;1.20;;;0.82;;
55931;SDS011;41837;55.700;37.984;2022-07-22T09:34:50;2.92;;;1.08;;
55931;SDS011;41837;55.700;37.984;2022-07-22T09:37:26;5.82;;;0.93;;
55931;SDS011;41837;55.700;37.984;2022-07-22T09:39:52;2.97;;;0.90;;
55931;SDS011;41837;55.700;37.984;2022-07-22T09:42:19;4.57;;;0.90;;
55931;SDS011;41837;55.700;37.984;2022-07-22T09:44:45;1.98;;;0.90;;
55931;SDS011;41837;55.700;37.984;2022-07-22T09:47:26;1.58;;;0.85;;
55931;SDS011;41837;55.700;37.984;2022-07-22T09:50:33;3.47;;;0.75;;
55931;SDS011;41837;55.700;37.984;2022-07-22T09:53:19;1.70;;;0.70;;
55931;SDS011;41837;55.700;37.984;2022-07-22T09:55:52;4.43;;;0.93;;
55931;SDS011;41837;55.700;37.984;2022-07-22T09:58:19;2.63;;;0.90;;
55931;SDS011;41837;55.700;37.984;2022-07-22T10:00:45;2.22;;;1.08;;
55931;SDS011;41837;55.700;37.984;2022-07-22T10:03:24;3.58;;;1.00;;
55931;SDS011;41837;55.700;37.984;2022-07-22T10:05:51;2.65;;;0.95;;
55931;SDS011;41837;55.700;37.984;2022-07-22T10:08:17;3.60;;;1.17;;
55931;SDS011;41837;55.700;37.984;2022-07-22T10:10:43;3.97;;;1.38;;
55931;SDS011;41837;55.700;37.984;2022-07-22T10:13:09;5.40;;;1.38;;
55931;SDS011;41837;55.700;37.984;2022-07-22T10:15:36;3.22;;;1.20;;
55931;SDS011;41837;55.700;37.984;2022-07-22T10:18:07;3.25;;;1.00;;
55931;SDS011;41837;55.700;37.984;2022-07-22T10:20:37;5.97;;;1.60;;
55931;SDS011;41837;55.700;37.984;2022-07-22T10:23:03;4.22;;;1.30;;
55931;SDS011;41837;55.700;37.984;2022-07-22T10:25:31;3.00;;;1.00;;
55931;SDS011;41837;55.700;37.984;2022-07-22T10:27:58;2.25;;;1.30;;
55931;SDS011;41837;55.700;37.984;2022-07-22T10:30:31;6.38;;;1.40;;
55931;SDS011;41837;55.700;37.984;2022-07-22T10:33:07;4.37;;;1.00;;
55931;SDS011;41837;55.700;37.984;2022-07-22T10:35:35;4.70;;;1.40;;
55931;SDS011;41837;55.700;37.984;2022-07-22T10:38:05;6.68;;;1.40;;
55931;SDS011;41837;55.700;37.984;2022-07-22T10:40:45;7.63;;;1.50;;
55931;SDS011;41837;55.700;37.984;2022-07-22T10:43:13;2.92;;;1.20;;
55931;SDS011;41837;55.700;37.984;2022-07-22T10:45:40;2.42;;;1.00;;
55931;SDS011;41837;55.700;37.984;2022-07-22T10:48:08;5.57;;;1.30;;
55931;SDS011;41837;55.700;37.984;2022-07-22T10:50:39;5.18;;;1.33;;
55931;SDS011;41837;55.700;37.984;2022-07-22T10:53:22;13.57;;;1.27;;
55931;SDS011;41837;55.700;37.984;2022-07-22T10:55:59;3.90;;;1.10;;
55931;SDS011;41837;55.700;37.984;2022-07-22T11:01:03;3.10;;;1.23;;
55931;SDS011;41837;55.700;37.984;2022-07-22T11:03:29;4.38;;;1.02;;
55931;SDS011;41837;55.700;37.984;2022-07-22T11:05:55;7.65;;;1.20;;
55931;SDS011;41837;55.700;37.984;2022-07-22T11:08:25;5.97;;;0.90;;
55931;SDS011;41837;55.700;37.984;2022-07-22T11:10:52;3.65;;;1.02;;
55931;SDS011;41837;55.700;37.984;2022-07-22T11:13:30;5.25;;;1.20;;
55931;SDS011;41837;55.700;37.984;2022-07-22T11:16:12;1.35;;;1.05;;
55931;SDS011;41837;55.700;37.984;2022-07-22T11:18:45;10.82;;;1.38;;
55931;SDS011;41837;55.700;37.984;2022-07-22T11:21:13;7.63;;;1.30;;
55931;SDS011;41837;55.700;37.984;2022-07-22T11:23:39;8.10;;;1.20;;
55931;SDS011;41837;55.700;37.984;2022-07-22T11:26:06;7.13;;;1.40;;
55931;SDS011;41837;55.700;37.984;2022-07-22T11:28:38;4.40;;;1.00;;
55931;SDS011;41837;55.700;37.984;2022-07-22T11:31:08;5.18;;;1.20;;
55931;SDS011;41837;55.700;37.984;2022-07-22T11:33:34;8.82;;;1.33;;
55931;SDS011;41837;55.700;37.984;2022-07-22T11:36:08;3.10;;;1.20;;
55931;SDS011;41837;55.700;37.984;2022-07-22T11:38:43;3.92;;;0.90;;
55931;SDS011;41837;55.700;37.984;2022-07-22T11:41:10;2.42;;;1.15;;
55931;SDS011;41837;55.700;37.984;2022-07-22T11:43:43;4.47;;;1.05;;
55931;SDS011;41837;55.700;37.984;2022-07-22T11:46:10;6.63;;;1.30;;
55931;SDS011;41837;55.700;37.984;2022-07-22T11:48:36;1.85;;;1.10;;
55931;SDS011;41837;55.700;37.984;2022-07-22T11:51:06;3.53;;;0.93;;
55931;SDS011;41837;55.700;37.984;2022-07-22T11:53:32;2.03;;;1.13;;
55931;SDS011;41837;55.700;37.984;2022-07-22T11:55:59;2.22;;;1.05;;
55931;SDS011;41837;55.700;37.984;2022-07-22T12:01:24;4.20;;;1.27;;
55931;SDS011;41837;55.700;37.984;2022-07-22T12:03:51;3.03;;;1.10;;
55931;SDS011;41837;55.700;37.984;2022-07-22T12:06:17;4.78;;;1.33;;
55931;SDS011;41837;55.700;37.984;2022-07-22T12:08:44;3.33;;;1.00;;
55931;SDS011;41837;55.700;37.984;2022-07-22T12:11:11;4.40;;;1.00;;
55931;SDS011;41837;55.700;37.984;2022-07-22T12:13:42;2.25;;;0.80;;
55931;SDS011;41837;55.700;37.984;2022-07-22T12:16:23;4.60;;;1.08;;
55931;SDS011;41837;55.700;37.984;2022-07-22T12:21:18;2.90;;;1.10;;
55931;SDS011;41837;55.700;37.984;2022-07-22T12:26:39;2.90;;;0.90;;
55931;SDS011;41837;55.700;37.984;2022-07-22T12:31:42;3.08;;;0.90;;
55931;SDS011;41837;55.700;37.984;2022-07-22T12:34:08;8.30;;;1.40;;
55931;SDS011;41837;55.700;37.984;2022-07-22T12:36:35;1.80;;;0.90;;
55931;SDS011;41837;55.700;37.984;2022-07-22T12:39:14;2.95;;;1.42;;
55931;SDS011;41837;55.700;37.984;2022-07-22T12:41:44;3.75;;;1.23;;
55931;SDS011;41837;55.700;37.984;2022-07-22T12:44:15;3.88;;;1.20;;
55931;SDS011;41837;55.700;37.984;2022-07-22T12:46:45;5.43;;;1.40;;
55931;SDS011;41837;55.700;37.984;2022-07-22T12:49:12;2.55;;;1.30;;
55931;SDS011;41837;55.700;37.984;2022-07-22T12:51:38;6.72;;;1.23;;
55931;SDS011;41837;55.700;37.984;2022-07-22T12:54:04;6.03;;;1.27;;
55931;SDS011;41837;55.700;37.984;2022-07-22T12:56:31;5.55;;;1.65;;
55931;SDS011;41837;55.700;37.984;2022-07-22T12:58:58;2.95;;;1.20;;
55931;SDS011;41837;55.700;37.984;2022-07-22T13:01:25;10.25;;;1.63;;
55931;SDS011;41837;55.700;37.984;2022-07-22T13:03:51;6.13;;;1.73;;
55931;SDS011;41837;55.700;37.984;2022-07-22T13:06:17;2.60;;;1.30;;
55931;SDS011;41837;55.700;37.984;2022-07-22T13:08:43;2.83;;;1.35;;
55931;SDS011;41837;55.700;37.984;2022-07-22T13:11:10;3.15;;;1.35;;
55931;SDS011;41837;55.700;37.984;2022-07-22T13:13:36;5.53;;;1.35;;
55931;SDS011;41837;55.700;37.984;2022-07-22T13:16:04;5.03;;;1.23;;
55931;SDS011;41837;55.700;37.984;2022-07-22T13:18:29;4.07;;;1.10;;
55931;SDS011;41837;55.700;37.984;2022-07-22T13:20:56;4.20;;;1.38;;
55931;SDS011;41837;55.700;37.984;2022-07-22T13:23:21;5.45;;;1.58;;
55931;SDS011;41837;55.700;37.984;2022-07-22T13:25:48;4.75;;;1.85;;
55931;SDS011;41837;55.700;37.984;2022-07-22T13:28:14;4.50;;;1.60;;
55931;SDS011;41837;55.700;37.984;2022-07-22T13:30:40;9.18;;;1.83;;
55931;SDS011;41837;55.700;37.984;2022-07-22T13:33:06;7.35;;;1.55;;
55931;SDS011;41837;55.700;37.984;2022-07-22T13:35:32;6.65;;;1.42;;
55931;SDS011;41837;55.700;37.984;2022-07-22T13:37:58;4.97;;;1.30;;
55931;SDS011;41837;55.700;37.984;2022-07-22T13:40:24;6.38;;;1.38;;
55931;SDS011;41837;55.700;37.984;2022-07-22T13:42:50;6.88;;;1.65;;
55931;SDS011;41837;55.700;37.984;2022-07-22T13:45:17;4.50;;;1.30;;
55931;SDS011;41837;55.700;37.984;2022-07-22T13:47:42;3.22;;;1.38;;
55931;SDS011;41837;55.700;37.984;2022-07-22T13:50:09;5.22;;;1.23;;
55931;SDS011;41837;55.700;37.984;2022-07-22T13:52:35;5.10;;;1.30;;
55931;SDS011;41837;55.700;37.984;2022-07-22T13:55:01;4.72;;;1.38;;
55931;SDS011;41837;55.700;37.984;2022-07-22T13:57:28;1.65;;;1.10;;
55931;SDS011;41837;55.700;37.984;2022-07-22T13:59:54;4.40;;;1.00;;
55931;SDS011;41837;55.700;37.984;2022-07-22T14:02:21;3.00;;;0.95;;
55931;SDS011;41837;55.700;37.984;2022-07-22T14:04:47;4.18;;;1.20;;
55931;SDS011;41837;55.700;37.984;2022-07-22T14:07:13;5.93;;;1.50;;
55931;SDS011;41837;55.700;37.984;2022-07-22T14:09:40;6.28;;;1.80;;
55931;SDS011;41837;55.700;37.984;2022-07-22T14:12:06;5.93;;;1.23;;
55931;SDS011;41837;55.700;37.984;2022-07-22T14:14:32;4.80;;;1.65;;
55931;SDS011;41837;55.700;37.984;2022-07-22T14:16:57;4.78;;;1.48;;
55931;SDS011;41837;55.700;37.984;2022-07-22T14:19:24;4.50;;;1.30;;
55931;SDS011;41837;55.700;37.984;2022-07-22T14:21:50;7.05;;;1.63;;
55931;SDS011;41837;55.700;37.984;2022-07-22T14:24:16;7.47;;;1.60;;
55931;SDS011;41837;55.700;37.984;2022-07-22T14:26:42;4.75;;;1.50;;
55931;SDS011;41837;55.700;37.984;2022-07-22T14:29:08;4.72;;;1.42;;
55931;SDS011;41837;55.700;37.984;2022-07-22T14:31:34;7.35;;;1.60;;
55931;SDS011;41837;55.700;37.984;2022-07-22T14:34:01;6.28;;;1.45;;
55931;SDS011;41837;55.700;37.984;2022-07-22T14:36:27;8.50;;;1.45;;
55931;SDS011;41837;55.700;37.984;2022-07-22T14:38:53;6.63;;;3.30;;
55931;SDS011;41837;55.700;37.984;2022-07-22T14:41:20;3.72;;;2.70;;
55931;SDS011;41837;55.700;37.984;2022-07-22T14:43:46;3.92;;;2.55;;
55931;SDS011;41837;55.700;37.984;2022-07-22T14:46:13;1.60;;;1.30;;
55931;SDS011;41837;55.700;37.984;2022-07-22T14:48:39;3.63;;;1.55;;
55931;SDS011;41837;55.700;37.984;2022-07-22T14:51:06;5.32;;;1.52;;
55931;SDS011;41837;55.700;37.984;2022-07-22T14:53:34;2.83;;;1.40;;
55931;SDS011;41837;55.700;37.984;2022-07-22T14:56:00;2.65;;;1.23;;
55931;SDS011;41837;55.700;37.984;2022-07-22T14:58:27;4.32;;;1.40;;